Strona główna
METAR-TAF:

METAR-TAF

Lotnisko :

Port lotniczy Sandane

Sandane, Norwegia

Szerokość geograficzna: 61-50N, Długość geograficzna: 006-07E, wysokość: 6 m

Aktualna obserwacja pogody

Raport powstał 14 godziny i 7 minut temu, godzina 08:50 UTC
Wiatr 7 kt od wschodnio-północny wschód
Temperatura 14°C
Wilgotność 55%
Ciśnienie 1032 hPa
Widzialność 10 km lub więcej
Brak chmur poniżej 1500 m i brak chmur cumulonimbus

METAR: ENSD 300850Z 07007KT CAVOK 14/05 Q1032 RMK WIND 1138FT VRB02KT

czas: 00:57 (22:57 UTC)


TAF: brakujący

Obserwacja i prognoza pogody dla ponad 4000 lotnisk (raport METAR i TAF).

Dostępne stacje oznaczono żółtymi i czerwonymi punktami na mapie.

Najedź kursorem aby zobaczyć nazwę stacji.

Kliknij aby zobaczyć obserwacje i prognozy pogody.

Aby zmienić mapę: kliknij na zielony przycisk z czarnym krzyżykiem, aby powiększyć; na zielony przycisk z myślnikiem, aby pomniejszyć; na zielone strzałki, aby przejść do map sąsiednich.


METAR-TAF: